createdAt,value
2018-11-26T00:01:04.494Z,943.1
2018-11-26T00:04:10.551Z,943.2
2018-11-26T00:07:16.431Z,943.1
2018-11-26T00:10:22.371Z,943.1
2018-11-26T00:13:28.332Z,943
2018-11-26T00:16:34.337Z,943.1
2018-11-26T00:19:40.344Z,943
2018-11-26T00:22:46.311Z,943
2018-11-26T00:25:52.268Z,942.9
2018-11-26T00:28:58.324Z,942.8
2018-11-26T00:32:04.202Z,942.9
2018-11-26T00:35:10.142Z,943
2018-11-26T00:38:16.227Z,943
2018-11-26T00:41:22.270Z,942.9
2018-11-26T00:44:28.223Z,942.8
2018-11-26T00:47:34.104Z,942.9
2018-11-26T00:50:40.053Z,942.8
2018-11-26T00:53:45.925Z,942.7
2018-11-26T00:56:51.858Z,942.5
2018-11-26T00:59:57.926Z,942.3
2018-11-26T01:03:03.888Z,942.2
2018-11-26T01:06:09.842Z,942.2
2018-11-26T01:09:15.858Z,942.1
2018-11-26T01:12:21.862Z,942
2018-11-26T01:15:27.826Z,941.9
2018-11-26T01:18:36.545Z,941.8
2018-11-26T01:21:42.427Z,941.5
2018-11-26T01:24:48.381Z,941.7
2018-11-26T01:27:56.575Z,941.6
2018-11-26T01:31:02.641Z,941.5
2018-11-26T01:34:08.523Z,941.4
2018-11-26T01:37:14.549Z,941.3
2018-11-26T01:40:20.516Z,940.9
2018-11-26T01:43:26.469Z,940.8
2018-11-26T01:46:32.348Z,940.7
2018-11-26T01:49:38.389Z,940.5
2018-11-26T01:52:44.299Z,940.3
2018-11-26T01:55:50.361Z,940.3
2018-11-26T01:58:56.231Z,940.3
2018-11-26T02:02:02.226Z,940.3
2018-11-26T02:05:08.390Z,940.2
2018-11-26T02:08:14.349Z,940.1
2018-11-26T02:11:20.227Z,940
2018-11-26T02:14:26.273Z,940.1
2018-11-26T02:17:32.226Z,940.1
2018-11-26T02:20:38.292Z,940
2018-11-26T02:23:44.402Z,940
2018-11-26T02:26:50.415Z,940.2
2018-11-26T02:29:56.369Z,940.2
2018-11-26T02:33:02.248Z,940
2018-11-26T02:36:08.391Z,940.1
2018-11-26T02:39:14.270Z,939.9
2018-11-26T02:42:20.221Z,940.1
2018-11-26T02:45:26.084Z,939.9
2018-11-26T02:48:31.971Z,940.1
2018-11-26T02:51:38.004Z,940.4
2018-11-26T02:54:43.945Z,940.1
2018-11-26T02:57:54.033Z,940.1
2018-11-26T03:01:00.075Z,940.1
2018-11-26T03:04:06.023Z,939.9
2018-11-26T03:07:11.976Z,939.9
2018-11-26T03:10:18.039Z,940.4
2018-11-26T03:13:24.104Z,940.1
2018-11-26T03:16:30.062Z,940
2018-11-26T03:19:35.937Z,940.5
2018-11-26T03:22:41.978Z,940.5
2018-11-26T03:25:47.918Z,940.4
2018-11-26T03:28:53.836Z,940.2
2018-11-26T03:31:59.707Z,940.3
2018-11-26T03:35:05.767Z,939.8
2018-11-26T03:38:11.877Z,940.2
2018-11-26T03:41:17.882Z,939.8
2018-11-26T03:44:23.919Z,940
2018-11-26T03:47:29.957Z,940
2018-11-26T03:50:36.016Z,940
2018-11-26T03:53:41.979Z,939.9
2018-11-26T03:56:48.049Z,939.8
2018-11-26T03:59:54.111Z,939.4
2018-11-26T04:02:59.980Z,939.6
2018-11-26T04:06:05.925Z,939.9
2018-11-26T04:09:11.882Z,940
2018-11-26T04:12:17.842Z,940
2018-11-26T04:15:23.797Z,939.4
2018-11-26T04:18:29.867Z,939.7
2018-11-26T04:21:35.736Z,939.8
2018-11-26T04:24:41.777Z,938.9
2018-11-26T04:27:47.833Z,939.5
2018-11-26T04:30:53.795Z,939
2018-11-26T04:33:59.907Z,939.3
2018-11-26T04:37:05.920Z,939
2018-11-26T04:40:11.985Z,939.2
2018-11-26T04:43:17.859Z,939.2
2018-11-26T04:46:24.008Z,939.3
2018-11-26T04:49:30.125Z,939.3
2018-11-26T04:52:36.122Z,939.2
2018-11-26T04:55:42.094Z,939.3
2018-11-26T04:58:48.044Z,939.4
2018-11-26T05:01:54.106Z,939.3
2018-11-26T05:05:00.076Z,939.1
2018-11-26T05:08:05.946Z,939
2018-11-26T05:11:11.981Z,939.1
2018-11-26T05:14:17.945Z,939.1
2018-11-26T05:17:23.897Z,939.3
2018-11-26T05:20:29.857Z,939.1
2018-11-26T05:23:35.821Z,939.2
2018-11-26T05:26:41.809Z,939.1
2018-11-26T05:29:47.968Z,939
2018-11-26T05:32:53.924Z,939
2018-11-26T05:35:59.862Z,939
2018-11-26T05:39:05.802Z,939
2018-11-26T05:42:11.880Z,939.1
2018-11-26T05:45:17.842Z,939
2018-11-26T05:48:23.799Z,938.8
2018-11-26T05:51:32.375Z,938.9
2018-11-26T05:54:38.380Z,938.7
2018-11-26T05:57:44.258Z,939.2
2018-11-26T06:00:50.300Z,939.3
2018-11-26T06:03:56.173Z,939.1
2018-11-26T06:07:02.120Z,938.9
2018-11-26T06:10:08.135Z,939
2018-11-26T06:13:14.144Z,938.9
2018-11-26T06:16:20.095Z,939
2018-11-26T06:19:26.054Z,939
2018-11-26T06:22:32.117Z,939.1
2018-11-26T06:25:38.064Z,939.1
2018-11-26T06:28:44.143Z,939
2018-11-26T06:31:50.097Z,938.8
2018-11-26T06:34:56.159Z,939
2018-11-26T06:38:02.059Z,939
2018-11-26T06:41:08.085Z,938.9
2018-11-26T06:44:13.958Z,938.9
2018-11-26T06:47:19.900Z,938.7
2018-11-26T06:50:27.136Z,938.9
2018-11-26T06:53:33.493Z,938.9
2018-11-26T06:56:39.643Z,939.1
2018-11-26T06:59:45.513Z,938.9
2018-11-26T07:02:51.597Z,938.7
2018-11-26T07:05:57.602Z,939
2018-11-26T07:09:03.766Z,938.7
2018-11-26T07:12:10.950Z,939
2018-11-26T07:15:17.017Z,938.8
2018-11-26T07:18:23.131Z,938.8
2018-11-26T07:21:29.005Z,938.8
2018-11-26T07:24:35.404Z,938.9
2018-11-26T07:27:41.361Z,939
2018-11-26T07:30:47.242Z,938.9
2018-11-26T07:33:53.279Z,938.8
2018-11-26T07:36:59.349Z,938.6
2018-11-26T07:40:05.552Z,938.5
2018-11-26T07:43:11.517Z,938.8
2018-11-26T07:46:17.508Z,938.8
2018-11-26T07:49:24.538Z,938.7
2018-11-26T07:52:30.476Z,938.6
2018-11-26T07:55:36.440Z,938.8
2018-11-26T07:58:45.225Z,938.9
2018-11-26T08:01:51.320Z,938.6
2018-11-26T08:04:57.276Z,938.7
2018-11-26T08:08:05.797Z,938.9
2018-11-26T08:11:11.801Z,938.9
2018-11-26T08:14:17.789Z,938.7
2018-11-26T08:17:23.888Z,938.6
2018-11-26T08:20:31.270Z,938.8
2018-11-26T08:23:37.322Z,939
2018-11-26T08:26:43.366Z,939.1
2018-11-26T08:29:49.400Z,939.1
2018-11-26T08:32:55.763Z,939
2018-11-26T08:36:04.501Z,938.8
2018-11-26T08:39:11.676Z,939.1
2018-11-26T08:42:17.652Z,938.8
2018-11-26T08:45:23.752Z,938.9
2018-11-26T08:48:30.709Z,938.9
2018-11-26T08:51:36.744Z,938.8
2018-11-26T08:54:42.702Z,938.9
2018-11-26T08:57:48.664Z,938.9
2018-11-26T09:00:54.731Z,938.8
2018-11-26T09:04:00.728Z,938.6
2018-11-26T09:07:06.949Z,938.9
2018-11-26T09:10:13.031Z,938.7
2018-11-26T09:13:18.902Z,938.4
2018-11-26T09:16:25.040Z,938.4
2018-11-26T09:19:30.967Z,938.6
2018-11-26T09:22:37.584Z,938.5
2018-11-26T09:25:43.734Z,938.3
2018-11-26T09:28:50.137Z,938.4
2018-11-26T09:31:56.694Z,938.3
2018-11-26T09:35:03.658Z,938
2018-11-26T09:38:11.208Z,938.2
2018-11-26T09:41:18.486Z,938.1
2018-11-26T09:44:24.419Z,938.2
2018-11-26T09:47:30.724Z,938.1
2018-11-26T09:50:37.954Z,938
2018-11-26T09:53:45.607Z,938
2018-11-26T09:56:51.667Z,938
2018-11-26T09:59:57.614Z,938.1
2018-11-26T10:03:03.853Z,938.1
2018-11-26T10:06:09.937Z,938
2018-11-26T10:09:16.111Z,937.7
2018-11-26T10:12:22.131Z,937.7
2018-11-26T10:15:28.197Z,937.9
2018-11-26T10:18:34.159Z,937.6
2018-11-26T10:21:40.106Z,937.7
2018-11-26T10:24:46.123Z,937.7
2018-11-26T10:27:53.198Z,937.6
2018-11-26T10:30:59.232Z,937.4
2018-11-26T10:34:06.147Z,937.3
2018-11-26T10:37:13.179Z,937.3
2018-11-26T10:40:19.143Z,937.2
2018-11-26T10:43:25.095Z,937.3
2018-11-26T10:46:31.036Z,937.1
2018-11-26T10:49:37.169Z,937.2
2018-11-26T10:52:44.113Z,937.3
2018-11-26T10:55:49.996Z,937.1
2018-11-26T10:58:56.145Z,937.4
2018-11-26T11:02:02.085Z,937.2
2018-11-26T11:05:08.045Z,937.4
2018-11-26T11:08:14.166Z,937.2
2018-11-26T11:11:24.739Z,937.2
2018-11-26T11:14:30.828Z,937.2
2018-11-26T11:17:36.894Z,937.1
2018-11-26T11:20:42.857Z,937.2
2018-11-26T11:23:48.927Z,937.1
2018-11-26T11:26:55.930Z,937
2018-11-26T11:30:04.243Z,937.2
2018-11-26T11:36:28.936Z,937.1
2018-11-26T11:39:34.909Z,936.9
2018-11-26T11:42:40.986Z,936.6
2018-11-26T11:45:46.934Z,936.7
2018-11-26T11:48:52.805Z,936.7
2018-11-26T11:51:58.997Z,936.7
2018-11-26T11:55:05.010Z,936.8
2018-11-26T11:58:13.723Z,936.7
2018-11-26T12:01:19.754Z,936.6
2018-11-26T12:04:25.693Z,936.6
2018-11-26T12:07:31.819Z,936.5
2018-11-26T12:10:40.635Z,936.5
2018-11-26T12:13:46.809Z,936.7
2018-11-26T12:16:53.171Z,936.6
2018-11-26T12:19:59.329Z,936.7
2018-11-26T12:23:05.294Z,936.7
2018-11-26T12:26:11.352Z,936.6
2018-11-26T12:29:17.317Z,936.5
2018-11-26T12:32:24.359Z,936.4
2018-11-26T12:35:30.471Z,936.6
2018-11-26T12:38:37.035Z,936.4
2018-11-26T12:41:42.996Z,936.3
2018-11-26T12:44:49.925Z,936.5
2018-11-26T12:47:55.964Z,936.4
2018-11-26T12:51:02.134Z,936.2
2018-11-26T12:54:08.076Z,936.2
2018-11-26T12:57:14.068Z,936.1
2018-11-26T13:00:20.339Z,936
2018-11-26T13:03:26.550Z,936
2018-11-26T13:06:32.921Z,935.8
2018-11-26T13:09:39.098Z,935.9
2018-11-26T13:12:45.348Z,935.7
2018-11-26T13:15:51.666Z,935.8
2018-11-26T13:18:57.789Z,935.6
2018-11-26T13:22:03.912Z,935.8
2018-11-26T13:25:10.946Z,935.7
2018-11-26T13:28:17.059Z,936
2018-11-26T13:31:23.205Z,935.9
2018-11-26T13:34:29.280Z,935.9
2018-11-26T13:37:35.589Z,936.1
2018-11-26T13:40:42.478Z,936.3
2018-11-26T13:43:48.742Z,936.2
2018-11-26T13:46:54.748Z,936
2018-11-26T13:50:00.751Z,936.3
2018-11-26T13:53:07.340Z,936.3
2018-11-26T13:56:13.285Z,936.3
2018-11-26T13:59:19.405Z,936.3
2018-11-26T14:02:26.306Z,936.2
2018-11-26T14:05:32.450Z,936.3
2018-11-26T14:08:38.454Z,936.4
2018-11-26T14:11:44.475Z,936.4
2018-11-26T14:14:52.895Z,936.3
2018-11-26T14:17:58.765Z,936.3
2018-11-26T14:21:05.063Z,936.3
2018-11-26T14:24:11.225Z,936.4
2018-11-26T14:27:18.585Z,936.6
2018-11-26T14:30:24.883Z,936.8
2018-11-26T14:33:31.374Z,936.6
2018-11-26T14:36:37.594Z,936.5
2018-11-26T14:39:44.556Z,936.5
2018-11-26T14:42:51.490Z,936.5
2018-11-26T14:45:57.669Z,936.6
2018-11-26T14:49:04.045Z,936.6
2018-11-26T14:52:10.293Z,936.5
2018-11-26T14:55:16.603Z,936.4
2018-11-26T14:58:23.693Z,936.4
2018-11-26T15:01:29.697Z,936.3
2018-11-26T15:04:36.064Z,936.3
2018-11-26T15:07:43.151Z,936.2
2018-11-26T15:10:49.315Z,936.2
2018-11-26T15:13:55.378Z,936.3
2018-11-26T15:17:01.503Z,936.5
2018-11-26T15:20:07.696Z,936.3
2018-11-26T15:23:15.866Z,936.4
2018-11-26T15:26:21.888Z,936.5
2018-11-26T15:29:27.883Z,936.5
2018-11-26T15:32:33.908Z,936.6
2018-11-26T15:35:40.220Z,936.5
2018-11-26T15:38:46.535Z,936.6
2018-11-26T15:41:54.357Z,936.6
2018-11-26T15:45:01.523Z,936.6
2018-11-26T15:48:08.328Z,936.6
2018-11-26T15:51:15.081Z,936.6
2018-11-26T15:54:21.958Z,936.6
2018-11-26T15:57:30.083Z,936.6
2018-11-26T16:00:37.159Z,936.6
2018-11-26T16:03:43.292Z,936.6
2018-11-26T16:06:49.433Z,936.7
2018-11-26T16:09:55.466Z,936.7
2018-11-26T16:13:02.478Z,936.8
2018-11-26T16:16:08.507Z,936.8
2018-11-26T16:19:17.480Z,936.8
2018-11-26T16:22:27.087Z,936.9
2018-11-26T16:25:33.265Z,936.9
2018-11-26T16:28:41.353Z,937
2018-11-26T16:31:47.367Z,936.8
2018-11-26T16:34:53.429Z,936.9
2018-11-26T16:37:59.435Z,936.9
2018-11-26T16:41:06.511Z,936.9
2018-11-26T16:44:12.534Z,937
2018-11-26T16:47:18.527Z,937.1
2018-11-26T16:50:24.637Z,937.1
2018-11-26T16:53:35.975Z,937.1
2018-11-26T16:56:42.069Z,937.1
2018-11-26T16:59:48.072Z,937.1
2018-11-26T17:02:54.166Z,937.1
2018-11-26T17:06:00.229Z,937
2018-11-26T17:09:06.393Z,937.1
2018-11-26T17:12:12.457Z,937.1
2018-11-26T17:15:18.337Z,937.1
2018-11-26T17:18:24.367Z,937.1
2018-11-26T17:21:33.251Z,937.1
2018-11-26T17:24:42.031Z,937.2
2018-11-26T17:27:48.089Z,937.2
2018-11-26T17:30:54.972Z,937.2
2018-11-26T17:34:00.928Z,937.1
2018-11-26T17:37:06.887Z,937.1
2018-11-26T17:40:12.850Z,937.1
2018-11-26T17:43:18.910Z,937.2
2018-11-26T17:46:24.967Z,937.2
2018-11-26T17:49:30.929Z,937.3
2018-11-26T17:52:36.883Z,937.2
2018-11-26T17:55:42.852Z,937.3
2018-11-26T17:58:48.914Z,937.2
2018-11-26T18:01:55.021Z,937.3
2018-11-26T18:05:01.034Z,937.3
2018-11-26T18:08:07.219Z,937.3
2018-11-26T18:11:13.171Z,937.3
2018-11-26T18:14:19.215Z,937.3
2018-11-26T18:17:25.386Z,937.4
2018-11-26T18:20:31.339Z,937.4
2018-11-26T18:23:37.425Z,937.3
2018-11-26T18:26:43.302Z,937.4
2018-11-26T18:29:49.321Z,937.3
2018-11-26T18:32:56.400Z,937.2
2018-11-26T18:36:02.645Z,937.2
2018-11-26T18:39:08.659Z,937.1
2018-11-26T18:42:14.592Z,937.2
2018-11-26T18:45:22.544Z,937.1
2018-11-26T18:48:28.497Z,937.2
2018-11-26T18:51:34.442Z,937.3
2018-11-26T18:54:40.423Z,937.3
2018-11-26T18:57:46.470Z,937.4
2018-11-26T19:00:53.425Z,937.5
2018-11-26T19:03:59.482Z,937.6
2018-11-26T19:07:05.394Z,937.6
2018-11-26T19:10:11.768Z,937.6
2018-11-26T19:13:17.640Z,937.5
2018-11-26T19:16:23.631Z,937.6
2018-11-26T19:19:29.635Z,937.6
2018-11-26T19:22:36.160Z,937.7
2018-11-26T19:25:42.227Z,937.7
2018-11-26T19:28:48.184Z,937.7
2018-11-26T19:31:58.090Z,937.6
2018-11-26T19:35:04.381Z,937.8
2018-11-26T19:38:10.304Z,937.7
2018-11-26T19:41:16.418Z,937.8
2018-11-26T19:44:22.427Z,937.9
2018-11-26T19:47:28.590Z,937.9
2018-11-26T19:50:34.707Z,937.9
2018-11-26T19:53:40.642Z,938
2018-11-26T19:56:46.627Z,938
2018-11-26T19:59:52.581Z,938
2018-11-26T20:02:58.546Z,937.9
2018-11-26T20:06:04.607Z,937.9
2018-11-26T20:09:10.566Z,937.8
2018-11-26T20:12:16.525Z,937.9
2018-11-26T20:15:22.485Z,937.8
2018-11-26T20:18:29.779Z,937.8
2018-11-26T20:21:35.778Z,937.8
2018-11-26T20:24:41.792Z,937.9
2018-11-26T20:27:47.853Z,937.9
2018-11-26T20:30:53.732Z,938
2018-11-26T20:33:59.673Z,938
2018-11-26T20:37:05.579Z,938
2018-11-26T20:40:11.599Z,937.9
2018-11-26T20:43:17.548Z,937.9
2018-11-26T20:46:23.427Z,938
2018-11-26T20:49:29.388Z,938
2018-11-26T20:52:35.258Z,938.1
2018-11-26T20:55:41.282Z,938
2018-11-26T20:58:47.293Z,938.1
2018-11-26T21:01:53.312Z,938.1
2018-11-26T21:04:59.218Z,938.1
2018-11-26T21:08:05.330Z,938
2018-11-26T21:11:11.395Z,937.9
2018-11-26T21:14:22.677Z,938
2018-11-26T21:17:28.635Z,937.8
2018-11-26T21:20:35.726Z,937.9
2018-11-26T21:23:41.685Z,937.9
2018-11-26T21:26:47.554Z,938
2018-11-26T21:29:53.496Z,937.9
2018-11-26T21:33:00.598Z,937.9
2018-11-26T21:36:06.650Z,937.9
2018-11-26T21:39:12.517Z,938
2018-11-26T21:42:18.454Z,938.1
2018-11-26T21:45:24.415Z,938.2
2018-11-26T21:48:30.731Z,938.1
2018-11-26T21:51:36.606Z,938.2
2018-11-26T21:54:42.650Z,938.2
2018-11-26T21:57:48.673Z,938.2
2018-11-26T22:00:54.727Z,938.3
2018-11-26T22:04:00.998Z,938.3
2018-11-26T22:07:06.947Z,938.3
2018-11-26T22:10:12.916Z,938.2
2018-11-26T22:13:19.284Z,938.3
2018-11-26T22:16:25.244Z,938.3
2018-11-26T22:19:31.199Z,938.4
2018-11-26T22:22:37.565Z,938.4
2018-11-26T22:25:43.472Z,938.5
2018-11-26T22:28:52.195Z,938.5
2018-11-26T22:31:58.110Z,938.5
2018-11-26T22:35:04.064Z,938.5
2018-11-26T22:38:10.124Z,938.6
2018-11-26T22:41:16.008Z,938.6
2018-11-26T22:44:21.965Z,938.7
2018-11-26T22:47:28.002Z,938.8
2018-11-26T22:50:33.881Z,938.9
2018-11-26T22:53:39.827Z,938.9
2018-11-26T22:56:45.915Z,939
2018-11-26T22:59:51.971Z,939.1
2018-11-26T23:02:57.889Z,939.1
2018-11-26T23:06:03.859Z,939.1
2018-11-26T23:09:09.925Z,939.2
2018-11-26T23:12:16.212Z,939.3
2018-11-26T23:15:22.202Z,939.3
2018-11-26T23:18:28.095Z,939.4
2018-11-26T23:21:34.065Z,939.3
2018-11-26T23:24:40.026Z,939.5
2018-11-26T23:27:45.926Z,939.6
2018-11-26T23:30:52.058Z,939.6
2018-11-26T23:33:58.061Z,939.7
2018-11-26T23:37:04.086Z,939.5
2018-11-26T23:40:09.948Z,939.6
2018-11-26T23:43:16.089Z,939.6
2018-11-26T23:46:22.051Z,939.4
2018-11-26T23:49:28.115Z,939.5
2018-11-26T23:52:34.082Z,939.6
2018-11-26T23:55:41.470Z,939.6
2018-11-26T23:58:47.533Z,939.5
